createdAt,value
2017-11-09T00:01:19.063Z,92.60
2017-11-09T00:03:51.005Z,83.00
2017-11-09T00:06:19.884Z,88.47
2017-11-09T00:08:45.929Z,77.60
2017-11-09T00:11:11.953Z,77.53
2017-11-09T00:13:37.892Z,79.70
2017-11-09T00:16:03.896Z,76.33
2017-11-09T00:18:29.935Z,89.33
2017-11-09T00:20:55.946Z,81.83
2017-11-09T00:23:21.964Z,85.27
2017-11-09T00:25:47.912Z,87.27
2017-11-09T00:28:13.869Z,84.57
2017-11-09T00:30:39.897Z,83.57
2017-11-09T00:33:05.867Z,82.23
2017-11-09T00:35:31.850Z,82.67
2017-11-09T00:37:57.817Z,84.07
2017-11-09T00:40:23.774Z,87.93
2017-11-09T00:42:49.784Z,80.63
2017-11-09T00:45:15.769Z,84.73
2017-11-09T00:47:41.744Z,87.20
2017-11-09T00:50:07.744Z,78.63
2017-11-09T00:52:34.475Z,93.83
2017-11-09T00:55:01.237Z,83.83
2017-11-09T00:57:27.273Z,84.27
2017-11-09T00:59:53.241Z,95.73
2017-11-09T01:02:19.308Z,81.00
2017-11-09T01:04:45.315Z,90.50
2017-11-09T01:07:12.059Z,88.70
2017-11-09T01:09:38.080Z,91.83
2017-11-09T01:12:04.077Z,79.47
2017-11-09T01:14:30.958Z,89.77
2017-11-09T01:16:56.937Z,81.07
2017-11-09T01:19:22.902Z,84.03
2017-11-09T01:21:49.057Z,88.63
2017-11-09T01:24:15.060Z,82.60
2017-11-09T01:26:41.030Z,97.33
2017-11-09T01:29:07.109Z,86.17
2017-11-09T01:31:33.089Z,94.53
2017-11-09T01:33:59.048Z,83.13
2017-11-09T01:36:25.059Z,89.53
2017-11-09T01:38:51.018Z,83.20
2017-11-09T01:41:17.008Z,92.73
2017-11-09T01:43:43.031Z,88.93
2017-11-09T01:46:09.012Z,88.70
2017-11-09T01:48:34.971Z,93.37
2017-11-09T01:51:00.981Z,85.30
2017-11-09T01:53:27.023Z,84.50
2017-11-09T01:55:52.963Z,89.60
2017-11-09T01:58:18.952Z,93.37
2017-11-09T02:00:44.939Z,79.23
2017-11-09T02:03:10.952Z,78.90
2017-11-09T02:05:36.954Z,75.73
2017-11-09T02:08:02.940Z,92.53
2017-11-09T02:10:28.918Z,91.70
2017-11-09T02:12:54.960Z,84.93
2017-11-09T02:15:21.029Z,91.47
2017-11-09T02:17:47.005Z,97.90
2017-11-09T02:20:12.996Z,93.17
2017-11-09T02:22:39.221Z,94.53
2017-11-09T02:25:05.232Z,105.70
2017-11-09T02:27:31.168Z,90.93
2017-11-09T02:29:57.119Z,105.70
2017-11-09T02:32:23.817Z,91.00
2017-11-09T02:34:49.773Z,89.20
2017-11-09T02:37:15.748Z,84.50
2017-11-09T02:39:42.448Z,88.50
2017-11-09T02:42:08.401Z,88.07
2017-11-09T02:44:34.428Z,90.90
2017-11-09T02:47:00.379Z,98.57
2017-11-09T02:49:26.366Z,81.67
2017-11-09T02:51:52.368Z,85.47
2017-11-09T02:54:27.536Z,99.53
2017-11-09T02:56:53.470Z,98.10
2017-11-09T02:59:19.432Z,92.93
2017-11-09T03:01:47.264Z,92.20
2017-11-09T03:04:13.209Z,88.27
2017-11-09T03:06:39.893Z,79.03
2017-11-09T03:09:05.835Z,83.53
2017-11-09T03:11:31.889Z,94.43
2017-11-09T03:13:57.891Z,87.10
2017-11-09T03:16:23.933Z,88.23
2017-11-09T03:18:49.936Z,92.03
2017-11-09T03:21:15.907Z,88.47
2017-11-09T03:23:41.829Z,89.80
2017-11-09T03:26:07.855Z,92.70
2017-11-09T03:28:33.796Z,83.07
2017-11-09T03:30:59.770Z,79.43
2017-11-09T03:33:25.724Z,84.97
2017-11-09T03:35:51.741Z,84.97
2017-11-09T03:38:17.928Z,78.63
2017-11-09T03:40:43.941Z,80.50
2017-11-09T03:43:09.980Z,72.83
2017-11-09T03:45:36.445Z,82.73
2017-11-09T03:48:02.437Z,91.47
2017-11-09T03:50:28.474Z,86.10
2017-11-09T03:52:55.194Z,83.70
2017-11-09T03:55:21.129Z,89.57
2017-11-09T03:57:47.867Z,93.23
2017-11-09T04:00:13.868Z,85.77
2017-11-09T04:02:39.829Z,89.53
2017-11-09T04:05:05.768Z,74.17
2017-11-09T04:07:31.823Z,92.60
2017-11-09T04:09:57.791Z,84.43
2017-11-09T04:12:24.357Z,91.53
2017-11-09T04:14:50.336Z,91.93
2017-11-09T04:17:16.271Z,92.20
2017-11-09T04:19:42.224Z,88.40
2017-11-09T04:22:08.253Z,91.07
2017-11-09T04:24:34.237Z,83.67
2017-11-09T04:27:00.186Z,88.27
2017-11-09T04:29:26.319Z,87.80
2017-11-09T04:31:52.261Z,94.30
2017-11-09T04:34:18.197Z,92.90
2017-11-09T04:36:44.115Z,90.57
2017-11-09T04:39:10.124Z,88.80
2017-11-09T04:41:36.053Z,87.80
2017-11-09T04:44:02.070Z,93.77
2017-11-09T04:46:28.895Z,106.20
2017-11-09T04:48:54.926Z,100.80
2017-11-09T04:51:20.941Z,99.57
2017-11-09T04:53:46.868Z,88.10
2017-11-09T04:56:13.169Z,98.00
2017-11-09T04:58:39.129Z,86.93
2017-11-09T05:01:05.160Z,98.50
2017-11-09T05:03:31.169Z,87.23
2017-11-09T05:05:57.129Z,95.73
2017-11-09T05:08:23.107Z,104.93
2017-11-09T05:10:49.036Z,95.63
2017-11-09T05:13:15.096Z,100.03
2017-11-09T05:15:41.045Z,93.80
2017-11-09T05:18:07.034Z,102.00
2017-11-09T05:20:33.093Z,94.73
2017-11-09T05:22:59.108Z,95.80
2017-11-09T05:25:25.803Z,88.00
2017-11-09T05:27:51.794Z,86.63
2017-11-09T05:30:17.842Z,91.50
2017-11-09T05:32:43.870Z,88.77
2017-11-09T05:35:10.608Z,100.50
2017-11-09T05:37:36.745Z,94.83
2017-11-09T05:40:02.781Z,92.03
2017-11-09T05:42:28.782Z,92.60
2017-11-09T05:44:54.764Z,90.70
2017-11-09T05:47:20.764Z,102.87
2017-11-09T05:49:46.745Z,91.53
2017-11-09T05:52:12.897Z,109.03
2017-11-09T05:54:38.873Z,90.70
2017-11-09T05:57:04.826Z,92.60
2017-11-09T05:59:30.796Z,101.23
2017-11-09T06:01:56.759Z,94.17
2017-11-09T06:04:23.501Z,91.50
2017-11-09T06:06:49.535Z,94.00
2017-11-09T06:09:15.643Z,93.40
2017-11-09T06:11:41.621Z,85.10
2017-11-09T06:14:07.596Z,84.40
2017-11-09T06:16:33.648Z,91.40
2017-11-09T06:18:59.674Z,81.97
2017-11-09T06:21:25.644Z,93.20
2017-11-09T06:23:51.573Z,85.87
2017-11-09T06:26:17.533Z,91.67
2017-11-09T06:28:44.366Z,89.47
2017-11-09T06:31:10.405Z,83.03
2017-11-09T06:33:37.451Z,90.60
2017-11-09T06:36:03.600Z,97.60
2017-11-09T06:38:29.640Z,90.83
2017-11-09T06:40:55.809Z,100.90
2017-11-09T06:43:21.833Z,87.40
2017-11-09T06:45:47.852Z,102.03
2017-11-09T06:48:13.976Z,88.20
2017-11-09T06:50:41.055Z,92.77
2017-11-09T06:53:07.042Z,89.30
2017-11-09T06:55:33.100Z,85.83
2017-11-09T06:57:59.309Z,87.33
2017-11-09T07:00:25.611Z,93.03
2017-11-09T07:02:52.627Z,92.30
2017-11-09T07:05:19.461Z,87.57
2017-11-09T07:07:45.538Z,90.60
2017-11-09T07:10:11.585Z,101.73
2017-11-09T07:12:37.714Z,100.03
2017-11-09T07:15:04.486Z,98.20
2017-11-09T07:17:31.307Z,100.80
2017-11-09T07:19:57.333Z,98.23
2017-11-09T07:22:24.315Z,97.30
2017-11-09T07:24:50.424Z,83.57
2017-11-09T07:27:16.557Z,92.47
2017-11-09T07:29:43.298Z,95.77
2017-11-09T07:32:10.041Z,99.53
2017-11-09T07:34:36.159Z,87.07
2017-11-09T07:37:02.277Z,85.30
2017-11-09T07:39:28.452Z,91.63
2017-11-09T07:41:54.547Z,89.23
2017-11-09T07:44:21.415Z,102.47
2017-11-09T07:46:48.519Z,84.30
2017-11-09T07:49:14.580Z,90.20
2017-11-09T07:51:40.646Z,86.63
2017-11-09T07:54:06.729Z,83.17
2017-11-09T07:56:32.889Z,90.83
2017-11-09T07:58:59.073Z,88.37
2017-11-09T08:01:25.789Z,87.23
2017-11-09T08:03:55.277Z,99.37
2017-11-09T08:06:22.888Z,91.13
2017-11-09T08:08:49.622Z,82.83
2017-11-09T08:11:15.642Z,86.03
2017-11-09T08:13:43.170Z,89.27
2017-11-09T08:16:11.481Z,95.23
2017-11-09T08:18:37.520Z,95.53
2017-11-09T08:21:03.603Z,80.00
2017-11-09T08:23:30.484Z,95.47
2017-11-09T08:25:59.559Z,88.07
2017-11-09T08:28:32.321Z,85.33
2017-11-09T08:31:01.843Z,97.37
2017-11-09T08:33:30.272Z,92.57
2017-11-09T08:35:56.318Z,94.00
2017-11-09T08:38:22.473Z,87.00
2017-11-09T08:40:48.493Z,99.13
2017-11-09T08:43:14.500Z,89.30
2017-11-09T08:45:41.043Z,84.10
2017-11-09T08:48:07.121Z,88.00
2017-11-09T08:50:33.118Z,95.83
2017-11-09T08:52:59.140Z,101.87
2017-11-09T08:55:25.152Z,92.20
2017-11-09T08:57:51.177Z,91.10
2017-11-09T09:00:17.219Z,84.83
2017-11-09T09:02:43.264Z,84.90
2017-11-09T09:05:10.306Z,91.10
2017-11-09T09:07:36.419Z,88.67
2017-11-09T09:10:02.699Z,86.97
2017-11-09T09:12:29.692Z,86.20
2017-11-09T09:14:55.798Z,93.40
2017-11-09T09:17:21.751Z,92.40
2017-11-09T09:19:47.739Z,88.90
2017-11-09T09:22:24.126Z,96.47
2017-11-09T09:24:50.112Z,85.13
2017-11-09T09:27:21.101Z,98.10
2017-11-09T09:29:52.471Z,89.90
2017-11-09T09:32:22.154Z,83.20
2017-11-09T09:34:55.258Z,93.50
2017-11-09T09:37:24.600Z,86.57
2017-11-09T09:39:55.665Z,84.77
2017-11-09T09:42:21.812Z,82.07
2017-11-09T09:44:47.888Z,79.63
2017-11-09T09:47:13.925Z,86.73
2017-11-09T09:49:40.006Z,76.80
2017-11-09T09:52:06.107Z,63.30
2017-11-09T09:54:32.176Z,76.00
2017-11-09T09:56:58.184Z,78.77
2017-11-09T09:59:24.998Z,82.23
2017-11-09T10:01:51.039Z,81.90
2017-11-09T10:04:17.035Z,91.63
2017-11-09T10:06:43.152Z,85.67
2017-11-09T10:09:09.122Z,78.23
2017-11-09T10:11:35.247Z,86.80
2017-11-09T10:14:01.308Z,82.57
2017-11-09T10:16:27.334Z,85.30
2017-11-09T10:18:53.352Z,80.87
2017-11-09T10:21:19.402Z,86.57
2017-11-09T10:23:45.426Z,82.77
2017-11-09T10:26:11.396Z,85.83
2017-11-09T10:28:37.546Z,88.70
2017-11-09T10:31:03.677Z,82.73
2017-11-09T10:33:29.688Z,80.70
2017-11-09T10:35:56.738Z,84.33
2017-11-09T10:38:22.777Z,82.10
2017-11-09T10:40:48.785Z,80.30
2017-11-09T10:43:14.826Z,80.60
2017-11-09T10:45:41.692Z,82.00
2017-11-09T10:48:07.767Z,84.63
2017-11-09T10:50:33.776Z,77.80
2017-11-09T10:52:59.845Z,88.77
2017-11-09T10:55:26.211Z,80.10
2017-11-09T10:57:52.403Z,87.70
2017-11-09T11:00:18.381Z,80.60
2017-11-09T11:02:45.169Z,80.03
2017-11-09T11:05:12.396Z,84.07
2017-11-09T11:07:39.103Z,80.67
2017-11-09T11:10:05.169Z,82.00
2017-11-09T11:12:31.178Z,89.63
2017-11-09T11:14:57.156Z,88.27
2017-11-09T11:17:24.258Z,85.80
2017-11-09T11:19:50.244Z,75.23
2017-11-09T11:22:16.253Z,75.17
2017-11-09T11:24:42.404Z,81.40
2017-11-09T11:27:08.507Z,81.80
2017-11-09T11:29:34.596Z,82.63
2017-11-09T11:32:00.836Z,79.47
2017-11-09T11:34:27.052Z,87.20
2017-11-09T11:36:53.034Z,75.93
2017-11-09T11:39:19.048Z,79.30
2017-11-09T11:41:45.042Z,80.03
2017-11-09T11:44:11.157Z,74.90
2017-11-09T11:46:37.407Z,74.20
2017-11-09T11:49:03.481Z,73.23
2017-11-09T11:51:29.768Z,63.80
2017-11-09T11:53:56.723Z,61.00
2017-11-09T11:56:22.851Z,61.57
2017-11-09T11:58:49.011Z,57.50
2017-11-09T12:01:14.993Z,62.50
2017-11-09T12:03:45.922Z,61.30
2017-11-09T12:06:12.009Z,55.57
2017-11-09T12:08:38.022Z,60.80
2017-11-09T12:11:04.718Z,63.30
2017-11-09T12:13:30.905Z,62.83
2017-11-09T12:15:57.686Z,67.90
2017-11-09T12:18:23.688Z,65.60
2017-11-09T12:20:49.683Z,58.37
2017-11-09T12:23:15.758Z,55.20
2017-11-09T12:25:41.944Z,53.37
2017-11-09T12:28:08.159Z,60.37
2017-11-09T12:30:34.182Z,63.80
2017-11-09T12:33:00.276Z,60.27
2017-11-09T12:35:26.330Z,53.53
2017-11-09T12:37:52.271Z,54.03
2017-11-09T12:40:18.290Z,52.17
2017-11-09T12:42:44.253Z,53.30
2017-11-09T12:45:10.425Z,53.57
2017-11-09T12:47:37.380Z,53.37
2017-11-09T12:50:03.508Z,51.10
2017-11-09T12:52:31.224Z,53.57
2017-11-09T12:54:59.091Z,55.73
2017-11-09T12:57:26.070Z,48.00
2017-11-09T13:02:26.581Z,51.83
2017-11-09T13:04:53.221Z,54.87
2017-11-09T13:07:19.169Z,63.53
2017-11-09T13:09:45.115Z,48.83
2017-11-09T13:17:14.143Z,50.10
2017-11-09T13:24:45.173Z,56.93
2017-11-09T13:29:43.094Z,61.03
2017-11-09T13:34:40.681Z,60.00
2017-11-09T13:39:38.896Z,56.20
2017-11-09T13:42:05.738Z,54.57
2017-11-09T13:44:32.933Z,55.73
2017-11-09T13:46:59.862Z,53.40
2017-11-09T13:49:26.786Z,56.70
2017-11-09T13:51:52.804Z,61.00
2017-11-09T13:54:18.827Z,56.57
2017-11-09T13:56:46.693Z,57.73
2017-11-09T14:01:43.550Z,61.60
2017-11-09T14:04:10.243Z,70.47
2017-11-09T14:06:37.972Z,51.67
2017-11-09T14:09:04.245Z,53.37
2017-11-09T14:21:34.660Z,54.63
2017-11-09T14:24:00.883Z,55.57
2017-11-09T14:26:27.595Z,55.70
2017-11-09T14:28:53.862Z,58.83
2017-11-09T14:31:20.160Z,51.47
2017-11-09T14:33:49.993Z,60.00
2017-11-09T14:36:16.026Z,57.87
2017-11-09T14:38:42.054Z,55.33
2017-11-09T14:41:08.018Z,61.97
2017-11-09T14:43:34.798Z,64.33
2017-11-09T14:46:02.369Z,62.93
2017-11-09T14:48:28.433Z,55.57
2017-11-09T14:50:54.433Z,62.17
2017-11-09T14:53:20.403Z,66.07
2017-11-09T14:55:46.452Z,67.03
2017-11-09T14:58:12.496Z,53.60
2017-11-09T15:00:38.650Z,65.90
2017-11-09T15:03:04.645Z,67.13
2017-11-09T15:05:30.669Z,51.33
2017-11-09T15:07:56.810Z,59.47
2017-11-09T15:10:22.810Z,50.13
2017-11-09T15:12:48.785Z,51.63
2017-11-09T15:15:15.578Z,46.60
2017-11-09T15:17:41.602Z,57.90
2017-11-09T15:20:07.872Z,57.53
2017-11-09T15:22:34.005Z,58.33
2017-11-09T15:25:00.008Z,52.43
2017-11-09T15:29:56.885Z,56.43
2017-11-09T15:32:23.881Z,56.53
2017-11-09T15:34:49.896Z,55.30
2017-11-09T15:37:18.130Z,51.87
2017-11-09T15:39:44.120Z,53.93
2017-11-09T15:42:10.940Z,58.97
2017-11-09T15:44:36.973Z,57.97
2017-11-09T15:47:03.016Z,56.77
2017-11-09T15:49:29.824Z,50.20
2017-11-09T15:51:55.765Z,43.80
2017-11-09T15:54:22.101Z,56.43
2017-11-09T15:56:48.128Z,46.37
2017-11-09T15:59:14.116Z,50.90
2017-11-09T16:01:40.069Z,49.37
2017-11-09T16:04:06.815Z,52.70
2017-11-09T16:06:37.722Z,51.13
2017-11-09T16:09:03.718Z,46.57
2017-11-09T16:11:29.722Z,53.37
2017-11-09T16:13:55.707Z,43.20
2017-11-09T16:16:21.708Z,43.90
2017-11-09T16:18:47.688Z,47.27
2017-11-09T16:21:13.716Z,51.27
2017-11-09T16:23:39.656Z,51.20
2017-11-09T16:26:05.745Z,53.83
2017-11-09T16:28:31.815Z,50.30
2017-11-09T16:30:57.707Z,53.67
2017-11-09T16:33:23.641Z,47.73
2017-11-09T16:35:49.709Z,47.47
2017-11-09T16:38:16.441Z,46.97
2017-11-09T16:40:42.440Z,51.10
2017-11-09T16:43:09.138Z,50.03
2017-11-09T16:45:35.957Z,47.23
2017-11-09T16:48:01.978Z,47.53
2017-11-09T16:50:28.368Z,47.77
2017-11-09T16:52:56.236Z,46.43
2017-11-09T16:55:22.281Z,51.70
2017-11-09T16:57:49.426Z,47.83
2017-11-09T17:00:15.422Z,49.63
2017-11-09T17:02:41.419Z,47.70
2017-11-09T17:05:07.475Z,45.03
2017-11-09T17:07:35.539Z,36.63
2017-11-09T17:10:01.991Z,45.30
2017-11-09T17:12:28.795Z,44.63
2017-11-09T17:15:00.642Z,42.63
2017-11-09T17:17:26.844Z,45.97
2017-11-09T17:19:52.837Z,58.63
2017-11-09T17:22:19.588Z,52.73
2017-11-09T17:24:45.657Z,49.90
2017-11-09T17:27:11.718Z,52.53
2017-11-09T17:29:37.778Z,57.90
2017-11-09T17:32:03.764Z,47.63
2017-11-09T17:34:29.862Z,53.23
2017-11-09T17:36:55.927Z,56.20
2017-11-09T17:39:21.967Z,57.53
2017-11-09T17:41:54.515Z,62.87
2017-11-09T17:44:20.566Z,60.07
2017-11-09T17:46:47.382Z,57.93
2017-11-09T17:49:14.505Z,57.63
2017-11-09T17:51:40.574Z,52.47
2017-11-09T17:54:07.432Z,54.43
2017-11-09T17:56:33.477Z,54.00
2017-11-09T17:59:01.723Z,54.27
2017-11-09T18:01:27.708Z,57.70
2017-11-09T18:03:53.710Z,55.67
2017-11-09T18:06:19.737Z,53.90
2017-11-09T18:08:45.845Z,51.53
2017-11-09T18:11:12.849Z,59.90
2017-11-09T18:13:39.598Z,50.80
2017-11-09T18:16:05.664Z,58.57
2017-11-09T18:18:33.360Z,55.30
2017-11-09T18:20:59.456Z,63.67
2017-11-09T18:23:25.618Z,54.07
2017-11-09T18:25:51.681Z,56.33
2017-11-09T18:28:17.833Z,62.23
2017-11-09T18:30:46.158Z,53.43
2017-11-09T18:33:12.269Z,52.47
2017-11-09T18:35:38.309Z,60.47
2017-11-09T18:38:04.461Z,62.20
2017-11-09T18:40:30.605Z,59.20
2017-11-09T18:42:56.782Z,56.43
2017-11-09T18:45:27.259Z,55.30
2017-11-09T18:47:53.249Z,61.03
2017-11-09T18:50:20.412Z,60.13
2017-11-09T18:52:46.507Z,59.30
2017-11-09T18:55:14.323Z,63.37
2017-11-09T18:57:40.521Z,66.60
2017-11-09T19:00:06.781Z,64.97
2017-11-09T19:02:32.770Z,75.63
2017-11-09T19:04:59.784Z,58.70
2017-11-09T19:07:26.556Z,59.77
2017-11-09T19:09:52.555Z,56.83
2017-11-09T19:12:18.653Z,57.63
2017-11-09T19:14:44.803Z,54.10
2017-11-09T19:17:10.846Z,57.13
2017-11-09T19:19:36.836Z,52.20
2017-11-09T19:22:03.859Z,58.77
2017-11-09T19:24:29.885Z,60.97
2017-11-09T19:26:55.844Z,59.37
2017-11-09T19:29:22.003Z,50.30
2017-11-09T19:31:47.997Z,56.67
2017-11-09T19:34:13.991Z,55.80
2017-11-09T19:36:39.999Z,51.20
2017-11-09T19:39:06.078Z,51.93
2017-11-09T19:41:32.312Z,49.63
2017-11-09T19:43:58.688Z,53.60
2017-11-09T19:46:24.753Z,50.30
2017-11-09T19:48:50.760Z,48.30
2017-11-09T19:51:17.519Z,47.37
2017-11-09T19:53:43.657Z,47.50
2017-11-09T19:56:09.861Z,42.20
2017-11-09T19:58:35.995Z,54.57
2017-11-09T20:01:02.162Z,48.37
2017-11-09T20:03:28.143Z,51.73
2017-11-09T20:05:54.127Z,49.53
2017-11-09T20:08:20.869Z,44.77
2017-11-09T20:10:46.794Z,47.40
2017-11-09T20:13:12.897Z,45.30
2017-11-09T20:15:38.902Z,47.00
2017-11-09T20:18:04.874Z,48.60
2017-11-09T20:20:31.529Z,42.93
2017-11-09T20:22:57.623Z,46.23
2017-11-09T20:25:23.757Z,38.63
2017-11-09T20:27:51.546Z,38.00
2017-11-09T20:30:17.507Z,34.80
2017-11-09T20:32:43.544Z,42.57
2017-11-09T20:35:10.373Z,40.67
2017-11-09T20:37:36.457Z,33.97
2017-11-09T20:40:02.660Z,33.60
2017-11-09T20:42:28.780Z,30.90
2017-11-09T20:44:55.005Z,35.73
2017-11-09T20:47:21.885Z,35.30
2017-11-09T20:49:47.974Z,35.60
2017-11-09T20:52:13.988Z,37.40
2017-11-09T20:54:40.921Z,33.23
2017-11-09T20:57:07.737Z,31.70
2017-11-09T20:59:33.906Z,31.03
2017-11-09T21:02:00.842Z,29.60
2017-11-09T21:04:27.037Z,33.13
2017-11-09T21:06:54.485Z,32.07
2017-11-09T21:09:20.521Z,32.50
2017-11-09T21:11:46.571Z,32.47
2017-11-09T21:14:12.554Z,36.37
2017-11-09T21:16:38.560Z,31.07
2017-11-09T21:19:04.639Z,34.93
2017-11-09T21:21:31.039Z,35.07
2017-11-09T21:23:57.058Z,34.10
2017-11-09T21:26:23.090Z,32.47
2017-11-09T21:28:49.151Z,32.67
2017-11-09T21:31:16.037Z,31.43
2017-11-09T21:33:42.177Z,31.60
2017-11-09T21:36:08.206Z,31.67
2017-11-09T21:38:34.201Z,31.13
2017-11-09T21:41:00.249Z,32.43
2017-11-09T21:43:26.274Z,30.00
2017-11-09T21:45:53.159Z,30.20
2017-11-09T21:48:19.154Z,28.30
2017-11-09T21:50:45.996Z,33.00
2017-11-09T21:53:11.957Z,31.97
2017-11-09T21:55:38.069Z,32.20
2017-11-09T21:58:04.882Z,29.13
2017-11-09T22:00:30.856Z,32.80
2017-11-09T22:02:56.825Z,33.33
2017-11-09T22:05:23.151Z,33.40
2017-11-09T22:07:49.160Z,32.70
2017-11-09T22:10:15.119Z,32.90
2017-11-09T22:12:41.834Z,32.67
2017-11-09T22:15:07.866Z,28.13
2017-11-09T22:17:33.793Z,32.77
2017-11-09T22:20:00.318Z,37.27
2017-11-09T22:22:26.322Z,32.83
2017-11-09T22:24:52.958Z,35.13
2017-11-09T22:27:19.743Z,29.10
2017-11-09T22:29:46.471Z,29.27
2017-11-09T22:32:12.468Z,33.13
2017-11-09T22:34:39.218Z,35.40
2017-11-09T22:37:05.254Z,34.27
2017-11-09T22:39:31.188Z,32.17
2017-11-09T22:41:57.921Z,42.07
2017-11-09T22:44:24.639Z,34.60
2017-11-09T22:46:50.608Z,30.63
2017-11-09T22:49:16.564Z,32.50
2017-11-09T22:51:42.603Z,32.10
2017-11-09T22:54:08.676Z,35.80
2017-11-09T22:56:34.663Z,32.63
2017-11-09T22:59:00.694Z,34.53
2017-11-09T23:01:26.747Z,31.93
2017-11-09T23:03:52.734Z,35.47
2017-11-09T23:06:18.721Z,32.47
2017-11-09T23:08:44.741Z,34.83
2017-11-09T23:11:10.776Z,34.30
2017-11-09T23:13:36.734Z,36.90
2017-11-09T23:16:02.771Z,32.17
2017-11-09T23:18:28.790Z,32.63
2017-11-09T23:20:54.796Z,37.80
2017-11-09T23:23:20.766Z,29.07
2017-11-09T23:25:46.734Z,35.90
2017-11-09T23:28:12.733Z,29.63
2017-11-09T23:30:38.807Z,36.03
2017-11-09T23:33:04.806Z,31.07
2017-11-09T23:35:30.736Z,35.00
2017-11-09T23:37:56.753Z,35.37
2017-11-09T23:40:22.829Z,31.60
2017-11-09T23:42:48.888Z,32.23
2017-11-09T23:45:14.936Z,38.47
2017-11-09T23:47:40.937Z,28.53
2017-11-09T23:50:07.757Z,35.53
2017-11-09T23:52:33.736Z,34.20
2017-11-09T23:54:59.776Z,33.23
2017-11-09T23:57:25.764Z,34.23
2017-11-09T23:59:51.886Z,35.60
